sensor_id;sensor_type;location;lat;lon;timestamp;P1;durP1;ratioP1;P2;durP2;ratioP2
16352;SDS011;8286;51.274;9.542;2023-07-20T00:01:29;3.75;;;2.17;;
16352;SDS011;8286;51.274;9.542;2023-07-20T00:03:55;3.25;;;2.88;;
16352;SDS011;8286;51.274;9.542;2023-07-20T00:06:22;2.60;;;2.40;;
16352;SDS011;8286;51.274;9.542;2023-07-20T00:08:49;4.53;;;2.60;;
16352;SDS011;8286;51.274;9.542;2023-07-20T00:11:17;3.53;;;3.30;;
16352;SDS011;8286;51.274;9.542;2023-07-20T00:13:44;3.00;;;2.70;;
16352;SDS011;8286;51.274;9.542;2023-07-20T00:16:10;4.03;;;2.60;;
16352;SDS011;8286;51.274;9.542;2023-07-20T00:18:37;3.50;;;2.85;;
16352;SDS011;8286;51.274;9.542;2023-07-20T00:21:03;2.88;;;2.67;;
16352;SDS011;8286;51.274;9.542;2023-07-20T00:23:30;4.32;;;2.67;;
16352;SDS011;8286;51.274;9.542;2023-07-20T00:25:57;2.90;;;2.60;;
16352;SDS011;8286;51.274;9.542;2023-07-20T00:28:24;3.00;;;2.70;;
16352;SDS011;8286;51.274;9.542;2023-07-20T00:30:51;5.40;;;3.15;;
16352;SDS011;8286;51.274;9.542;2023-07-20T00:33:18;3.90;;;2.65;;
16352;SDS011;8286;51.274;9.542;2023-07-20T00:35:44;2.60;;;2.40;;
16352;SDS011;8286;51.274;9.542;2023-07-20T00:38:11;2.55;;;2.35;;
16352;SDS011;8286;51.274;9.542;2023-07-20T00:40:38;3.20;;;2.80;;
16352;SDS011;8286;51.274;9.542;2023-07-20T00:43:04;3.00;;;2.38;;
16352;SDS011;8286;51.274;9.542;2023-07-20T00:45:33;2.05;;;1.90;;
16352;SDS011;8286;51.274;9.542;2023-07-20T00:48:00;2.85;;;2.13;;
16352;SDS011;8286;51.274;9.542;2023-07-20T00:50:27;2.38;;;2.10;;
16352;SDS011;8286;51.274;9.542;2023-07-20T00:52:54;3.25;;;2.58;;
16352;SDS011;8286;51.274;9.542;2023-07-20T00:55:22;2.40;;;2.20;;
16352;SDS011;8286;51.274;9.542;2023-07-20T00:57:49;2.70;;;2.50;;
16352;SDS011;8286;51.274;9.542;2023-07-20T01:00:16;3.60;;;2.30;;
16352;SDS011;8286;51.274;9.542;2023-07-20T01:02:44;2.50;;;2.08;;
16352;SDS011;8286;51.274;9.542;2023-07-20T01:05:13;2.05;;;1.85;;
16352;SDS011;8286;51.274;9.542;2023-07-20T01:07:42;2.58;;;2.38;;
16352;SDS011;8286;51.274;9.542;2023-07-20T01:10:12;2.08;;;1.98;;
16352;SDS011;8286;51.274;9.542;2023-07-20T01:12:41;2.92;;;2.20;;
16352;SDS011;8286;51.274;9.542;2023-07-20T01:15:08;3.47;;;2.20;;
16352;SDS011;8286;51.274;9.542;2023-07-20T01:17:35;2.88;;;2.10;;
16352;SDS011;8286;51.274;9.542;2023-07-20T01:20:04;2.40;;;2.20;;
16352;SDS011;8286;51.274;9.542;2023-07-20T01:22:43;3.08;;;2.05;;
16352;SDS011;8286;51.274;9.542;2023-07-20T01:25:21;2.28;;;2.08;;
16352;SDS011;8286;51.274;9.542;2023-07-20T01:28:04;2.65;;;2.30;;
16352;SDS011;8286;51.274;9.542;2023-07-20T01:30:52;5.45;;;2.30;;
16352;SDS011;8286;51.274;9.542;2023-07-20T01:33:23;2.60;;;2.40;;
16352;SDS011;8286;51.274;9.542;2023-07-20T01:35:52;2.30;;;2.10;;
16352;SDS011;8286;51.274;9.542;2023-07-20T01:38:21;4.72;;;2.70;;
16352;SDS011;8286;51.274;9.542;2023-07-20T01:40:47;4.55;;;2.70;;
16352;SDS011;8286;51.274;9.542;2023-07-20T01:43:14;2.65;;;2.45;;
16352;SDS011;8286;51.274;9.542;2023-07-20T01:45:41;2.65;;;2.40;;
16352;SDS011;8286;51.274;9.542;2023-07-20T01:48:07;4.20;;;2.40;;
16352;SDS011;8286;51.274;9.542;2023-07-20T01:50:35;2.53;;;2.25;;
16352;SDS011;8286;51.274;9.542;2023-07-20T01:53:01;3.42;;;2.25;;
16352;SDS011;8286;51.274;9.542;2023-07-20T01:55:28;4.32;;;2.35;;
16352;SDS011;8286;51.274;9.542;2023-07-20T01:57:55;2.88;;;2.67;;
16352;SDS011;8286;51.274;9.542;2023-07-20T02:00:21;2.97;;;2.75;;
16352;SDS011;8286;51.274;9.542;2023-07-20T02:02:49;3.85;;;2.95;;
16352;SDS011;8286;51.274;9.542;2023-07-20T02:05:16;3.75;;;2.45;;
16352;SDS011;8286;51.274;9.542;2023-07-20T02:07:44;4.22;;;2.42;;
16352;SDS011;8286;51.274;9.542;2023-07-20T02:10:10;2.45;;;2.25;;
16352;SDS011;8286;51.274;9.542;2023-07-20T02:12:37;3.38;;;2.63;;
16352;SDS011;8286;51.274;9.542;2023-07-20T02:15:04;3.75;;;2.65;;
16352;SDS011;8286;51.274;9.542;2023-07-20T02:17:31;4.05;;;2.63;;
16352;SDS011;8286;51.274;9.542;2023-07-20T02:19:57;3.70;;;2.80;;
16352;SDS011;8286;51.274;9.542;2023-07-20T02:22:24;3.45;;;2.45;;
16352;SDS011;8286;51.274;9.542;2023-07-20T02:24:52;3.80;;;2.28;;
16352;SDS011;8286;51.274;9.542;2023-07-20T02:27:18;2.88;;;2.40;;
16352;SDS011;8286;51.274;9.542;2023-07-20T02:29:45;2.55;;;2.35;;
16352;SDS011;8286;51.274;9.542;2023-07-20T02:32:11;4.60;;;2.92;;
16352;SDS011;8286;51.274;9.542;2023-07-20T02:34:38;2.60;;;2.40;;
16352;SDS011;8286;51.274;9.542;2023-07-20T02:37:04;2.60;;;2.40;;
16352;SDS011;8286;51.274;9.542;2023-07-20T02:39:33;3.60;;;2.30;;
16352;SDS011;8286;51.274;9.542;2023-07-20T02:42:00;2.58;;;2.38;;
16352;SDS011;8286;51.274;9.542;2023-07-20T02:44:27;3.67;;;2.42;;
16352;SDS011;8286;51.274;9.542;2023-07-20T02:46:53;2.50;;;2.30;;
16352;SDS011;8286;51.274;9.542;2023-07-20T02:49:20;3.50;;;2.60;;
16352;SDS011;8286;51.274;9.542;2023-07-20T02:51:47;4.32;;;2.40;;
16352;SDS011;8286;51.274;9.542;2023-07-20T02:54:13;3.42;;;2.83;;
16352;SDS011;8286;51.274;9.542;2023-07-20T02:56:40;7.78;;;2.85;;
16352;SDS011;8286;51.274;9.542;2023-07-20T02:59:07;2.90;;;2.70;;
16352;SDS011;8286;51.274;9.542;2023-07-20T03:01:34;3.58;;;2.40;;
16352;SDS011;8286;51.274;9.542;2023-07-20T03:04:00;3.78;;;2.55;;
16352;SDS011;8286;51.274;9.542;2023-07-20T03:06:27;3.85;;;2.55;;
16352;SDS011;8286;51.274;9.542;2023-07-20T03:08:54;2.78;;;2.42;;
16352;SDS011;8286;51.274;9.542;2023-07-20T03:11:20;3.22;;;2.78;;
16352;SDS011;8286;51.274;9.542;2023-07-20T03:13:47;5.30;;;2.53;;
16352;SDS011;8286;51.274;9.542;2023-07-20T03:16:17;3.28;;;2.75;;
16352;SDS011;8286;51.274;9.542;2023-07-20T03:18:44;4.72;;;2.70;;
16352;SDS011;8286;51.274;9.542;2023-07-20T03:21:11;2.55;;;2.40;;
16352;SDS011;8286;51.274;9.542;2023-07-20T03:23:38;3.47;;;2.42;;
16352;SDS011;8286;51.274;9.542;2023-07-20T03:26:04;3.42;;;3.10;;
16352;SDS011;8286;51.274;9.542;2023-07-20T03:28:33;3.10;;;2.63;;
16352;SDS011;8286;51.274;9.542;2023-07-20T03:30:59;8.05;;;3.65;;
16352;SDS011;8286;51.274;9.542;2023-07-20T03:33:28;3.58;;;3.28;;
16352;SDS011;8286;51.274;9.542;2023-07-20T03:35:55;3.67;;;3.38;;
16352;SDS011;8286;51.274;9.542;2023-07-20T03:38:22;5.15;;;2.97;;
16352;SDS011;8286;51.274;9.542;2023-07-20T03:40:50;2.95;;;2.75;;
16352;SDS011;8286;51.274;9.542;2023-07-20T03:43:17;7.30;;;3.15;;
16352;SDS011;8286;51.274;9.542;2023-07-20T03:45:44;3.15;;;2.85;;
16352;SDS011;8286;51.274;9.542;2023-07-20T03:48:12;3.88;;;3.25;;
16352;SDS011;8286;51.274;9.542;2023-07-20T03:50:40;3.83;;;3.10;;
16352;SDS011;8286;51.274;9.542;2023-07-20T03:53:07;3.97;;;2.83;;
16352;SDS011;8286;51.274;9.542;2023-07-20T03:55:33;3.55;;;3.13;;
16352;SDS011;8286;51.274;9.542;2023-07-20T03:57:59;5.05;;;3.60;;
16352;SDS011;8286;51.274;9.542;2023-07-20T04:00:26;4.55;;;3.15;;
16352;SDS011;8286;51.274;9.542;2023-07-20T04:02:52;4.05;;;3.20;;
16352;SDS011;8286;51.274;9.542;2023-07-20T04:05:19;4.50;;;3.22;;
16352;SDS011;8286;51.274;9.542;2023-07-20T04:07:47;4.15;;;2.95;;
16352;SDS011;8286;51.274;9.542;2023-07-20T04:10:13;4.15;;;3.10;;
16352;SDS011;8286;51.274;9.542;2023-07-20T04:12:40;3.67;;;3.20;;
16352;SDS011;8286;51.274;9.542;2023-07-20T04:15:07;4.78;;;3.15;;
16352;SDS011;8286;51.274;9.542;2023-07-20T04:17:34;3.28;;;2.80;;
16352;SDS011;8286;51.274;9.542;2023-07-20T04:20:01;2.67;;;2.47;;
16352;SDS011;8286;51.274;9.542;2023-07-20T04:22:28;3.72;;;3.03;;
16352;SDS011;8286;51.274;9.542;2023-07-20T04:24:56;2.80;;;2.60;;
16352;SDS011;8286;51.274;9.542;2023-07-20T04:27:22;3.72;;;2.70;;
16352;SDS011;8286;51.274;9.542;2023-07-20T04:29:49;4.15;;;2.88;;
16352;SDS011;8286;51.274;9.542;2023-07-20T04:32:15;2.92;;;2.33;;
16352;SDS011;8286;51.274;9.542;2023-07-20T04:34:42;6.25;;;3.15;;
16352;SDS011;8286;51.274;9.542;2023-07-20T04:37:08;3.00;;;2.70;;
16352;SDS011;8286;51.274;9.542;2023-07-20T04:39:35;2.75;;;2.53;;
16352;SDS011;8286;51.274;9.542;2023-07-20T04:42:03;3.67;;;2.90;;
16352;SDS011;8286;51.274;9.542;2023-07-20T04:44:30;3.88;;;2.65;;
16352;SDS011;8286;51.274;9.542;2023-07-20T04:46:56;4.22;;;2.72;;
16352;SDS011;8286;51.274;9.542;2023-07-20T04:49:23;4.25;;;2.90;;
16352;SDS011;8286;51.274;9.542;2023-07-20T04:51:50;3.42;;;2.63;;
16352;SDS011;8286;51.274;9.542;2023-07-20T04:54:17;3.78;;;2.70;;
16352;SDS011;8286;51.274;9.542;2023-07-20T04:56:44;2.95;;;2.65;;
16352;SDS011;8286;51.274;9.542;2023-07-20T04:59:12;4.32;;;2.10;;
16352;SDS011;8286;51.274;9.542;2023-07-20T05:01:38;2.28;;;2.10;;
16352;SDS011;8286;51.274;9.542;2023-07-20T05:04:05;3.40;;;2.83;;
16352;SDS011;8286;51.274;9.542;2023-07-20T05:06:31;3.55;;;2.85;;
16352;SDS011;8286;51.274;9.542;2023-07-20T05:08:58;3.67;;;2.45;;
16352;SDS011;8286;51.274;9.542;2023-07-20T05:11:24;7.82;;;2.72;;
16352;SDS011;8286;51.274;9.542;2023-07-20T05:13:51;3.63;;;3.33;;
16352;SDS011;8286;51.274;9.542;2023-07-20T05:16:18;3.20;;;3.00;;
16352;SDS011;8286;51.274;9.542;2023-07-20T05:18:45;4.47;;;2.83;;
16352;SDS011;8286;51.274;9.542;2023-07-20T05:21:11;3.47;;;3.17;;
16352;SDS011;8286;51.274;9.542;2023-07-20T05:23:39;7.60;;;3.30;;
16352;SDS011;8286;51.274;9.542;2023-07-20T05:26:05;5.70;;;2.80;;
16352;SDS011;8286;51.274;9.542;2023-07-20T05:28:32;4.57;;;3.08;;
16352;SDS011;8286;51.274;9.542;2023-07-20T05:30:58;8.52;;;3.30;;
16352;SDS011;8286;51.274;9.542;2023-07-20T05:33:26;6.65;;;3.50;;
16352;SDS011;8286;51.274;9.542;2023-07-20T05:35:53;4.80;;;3.55;;
16352;SDS011;8286;51.274;9.542;2023-07-20T05:38:19;6.47;;;3.55;;
16352;SDS011;8286;51.274;9.542;2023-07-20T05:40:46;4.30;;;3.55;;
16352;SDS011;8286;51.274;9.542;2023-07-20T05:43:13;4.20;;;2.80;;
16352;SDS011;8286;51.274;9.542;2023-07-20T05:45:41;3.42;;;3.13;;
16352;SDS011;8286;51.274;9.542;2023-07-20T05:48:08;3.50;;;3.20;;
16352;SDS011;8286;51.274;9.542;2023-07-20T05:50:37;5.90;;;3.22;;
16352;SDS011;8286;51.274;9.542;2023-07-20T05:53:04;4.18;;;3.65;;
16352;SDS011;8286;51.274;9.542;2023-07-20T05:55:31;4.70;;;3.65;;
16352;SDS011;8286;51.274;9.542;2023-07-20T05:57:58;6.55;;;3.72;;
16352;SDS011;8286;51.274;9.542;2023-07-20T06:00:24;3.75;;;3.42;;
16352;SDS011;8286;51.274;9.542;2023-07-20T06:02:51;5.45;;;4.93;;
16352;SDS011;8286;51.274;9.542;2023-07-20T06:05:18;4.85;;;3.92;;
16352;SDS011;8286;51.274;9.542;2023-07-20T06:07:46;4.63;;;3.63;;
16352;SDS011;8286;51.274;9.542;2023-07-20T06:10:13;5.35;;;3.70;;
16352;SDS011;8286;51.274;9.542;2023-07-20T06:12:39;6.10;;;4.00;;
16352;SDS011;8286;51.274;9.542;2023-07-20T06:15:10;5.60;;;5.05;;
16352;SDS011;8286;51.274;9.542;2023-07-20T06:17:50;8.30;;;4.75;;
16352;SDS011;8286;51.274;9.542;2023-07-20T06:20:17;7.55;;;5.05;;
16352;SDS011;8286;51.274;9.542;2023-07-20T06:22:44;7.28;;;4.57;;
16352;SDS011;8286;51.274;9.542;2023-07-20T06:25:12;9.60;;;5.30;;
16352;SDS011;8286;51.274;9.542;2023-07-20T06:27:38;7.90;;;5.07;;
16352;SDS011;8286;51.274;9.542;2023-07-20T06:30:05;6.68;;;4.80;;
16352;SDS011;8286;51.274;9.542;2023-07-20T06:32:33;5.63;;;5.13;;
16352;SDS011;8286;51.274;9.542;2023-07-20T06:34:59;7.07;;;4.57;;
16352;SDS011;8286;51.274;9.542;2023-07-20T06:37:26;5.78;;;4.80;;
16352;SDS011;8286;51.274;9.542;2023-07-20T06:39:52;8.57;;;5.35;;
16352;SDS011;8286;51.274;9.542;2023-07-20T06:42:20;9.07;;;5.35;;
16352;SDS011;8286;51.274;9.542;2023-07-20T06:44:47;7.50;;;4.60;;
16352;SDS011;8286;51.274;9.542;2023-07-20T06:47:13;5.13;;;4.50;;
16352;SDS011;8286;51.274;9.542;2023-07-20T06:49:40;4.80;;;4.40;;
16352;SDS011;8286;51.274;9.542;2023-07-20T06:52:07;8.32;;;4.95;;
16352;SDS011;8286;51.274;9.542;2023-07-20T06:54:33;6.30;;;4.68;;
16352;SDS011;8286;51.274;9.542;2023-07-20T06:57:00;5.63;;;4.68;;
16352;SDS011;8286;51.274;9.542;2023-07-20T06:59:28;5.95;;;4.78;;
16352;SDS011;8286;51.274;9.542;2023-07-20T07:01:54;7.10;;;4.32;;
16352;SDS011;8286;51.274;9.542;2023-07-20T07:04:21;5.22;;;4.70;;
16352;SDS011;8286;51.274;9.542;2023-07-20T07:06:48;6.00;;;4.95;;
16352;SDS011;8286;51.274;9.542;2023-07-20T07:09:14;5.78;;;4.10;;
16352;SDS011;8286;51.274;9.542;2023-07-20T07:11:41;6.40;;;4.35;;
16352;SDS011;8286;51.274;9.542;2023-07-20T07:14:07;5.15;;;4.00;;
16352;SDS011;8286;51.274;9.542;2023-07-20T07:16:35;8.30;;;4.97;;
16352;SDS011;8286;51.274;9.542;2023-07-20T07:19:02;7.68;;;5.40;;
16352;SDS011;8286;51.274;9.542;2023-07-20T07:21:28;8.07;;;5.28;;
16352;SDS011;8286;51.274;9.542;2023-07-20T07:23:55;8.43;;;5.50;;
16352;SDS011;8286;51.274;9.542;2023-07-20T07:26:24;6.97;;;5.63;;
16352;SDS011;8286;51.274;9.542;2023-07-20T07:28:50;8.80;;;5.53;;
16352;SDS011;8286;51.274;9.542;2023-07-20T07:31:17;8.45;;;5.20;;
16352;SDS011;8286;51.274;9.542;2023-07-20T07:33:45;8.55;;;4.60;;
16352;SDS011;8286;51.274;9.542;2023-07-20T07:36:11;9.80;;;5.35;;
16352;SDS011;8286;51.274;9.542;2023-07-20T07:38:38;7.95;;;4.85;;
16352;SDS011;8286;51.274;9.542;2023-07-20T07:41:04;4.47;;;4.07;;
16352;SDS011;8286;51.274;9.542;2023-07-20T07:43:31;4.97;;;3.20;;
16352;SDS011;8286;51.274;9.542;2023-07-20T07:45:58;5.38;;;3.30;;
16352;SDS011;8286;51.274;9.542;2023-07-20T07:48:24;2.97;;;2.60;;
16352;SDS011;8286;51.274;9.542;2023-07-20T07:50:53;2.40;;;2.30;;
16352;SDS011;8286;51.274;9.542;2023-07-20T07:53:20;4.18;;;2.30;;
16352;SDS011;8286;51.274;9.542;2023-07-20T07:55:47;2.65;;;2.45;;
16352;SDS011;8286;51.274;9.542;2023-07-20T07:58:13;2.90;;;2.70;;
16352;SDS011;8286;51.274;9.542;2023-07-20T08:00:40;2.78;;;2.58;;
16352;SDS011;8286;51.274;9.542;2023-07-20T08:03:06;3.72;;;2.75;;
16352;SDS011;8286;51.274;9.542;2023-07-20T08:05:33;3.53;;;3.10;;
16352;SDS011;8286;51.274;9.542;2023-07-20T08:08:01;2.90;;;2.15;;
16352;SDS011;8286;51.274;9.542;2023-07-20T08:10:28;4.57;;;2.58;;
16352;SDS011;8286;51.274;9.542;2023-07-20T08:12:55;2.53;;;2.33;;
16352;SDS011;8286;51.274;9.542;2023-07-20T08:15:21;2.90;;;2.70;;
16352;SDS011;8286;51.274;9.542;2023-07-20T08:17:48;3.03;;;2.65;;
16352;SDS011;8286;51.274;9.542;2023-07-20T08:20:16;2.70;;;2.50;;
16352;SDS011;8286;51.274;9.542;2023-07-20T08:22:43;3.28;;;2.47;;
16352;SDS011;8286;51.274;9.542;2023-07-20T08:25:11;2.78;;;2.50;;
16352;SDS011;8286;51.274;9.542;2023-07-20T08:27:37;2.13;;;1.95;;
16352;SDS011;8286;51.274;9.542;2023-07-20T08:30:06;3.20;;;2.15;;
16352;SDS011;8286;51.274;9.542;2023-07-20T08:32:34;2.28;;;2.08;;
16352;SDS011;8286;51.274;9.542;2023-07-20T08:35:00;2.20;;;1.88;;
16352;SDS011;8286;51.274;9.542;2023-07-20T08:37:27;3.15;;;1.85;;
16352;SDS011;8286;51.274;9.542;2023-07-20T08:39:54;2.75;;;2.45;;
16352;SDS011;8286;51.274;9.542;2023-07-20T08:42:21;7.65;;;1.98;;
16352;SDS011;8286;51.274;9.542;2023-07-20T08:44:48;2.17;;;1.95;;
16352;SDS011;8286;51.274;9.542;2023-07-20T08:47:16;2.47;;;2.00;;
16352;SDS011;8286;51.274;9.542;2023-07-20T08:49:42;4.80;;;2.38;;
16352;SDS011;8286;51.274;9.542;2023-07-20T08:52:09;2.38;;;2.17;;
16352;SDS011;8286;51.274;9.542;2023-07-20T08:54:36;2.13;;;2.00;;
16352;SDS011;8286;51.274;9.542;2023-07-20T08:57:03;2.40;;;2.25;;
16352;SDS011;8286;51.274;9.542;2023-07-20T08:59:32;2.05;;;1.95;;
16352;SDS011;8286;51.274;9.542;2023-07-20T09:01:58;2.30;;;1.85;;
16352;SDS011;8286;51.274;9.542;2023-07-20T09:04:25;3.40;;;2.47;;
16352;SDS011;8286;51.274;9.542;2023-07-20T09:06:52;2.13;;;1.88;;
16352;SDS011;8286;51.274;9.542;2023-07-20T09:09:18;5.15;;;2.97;;
16352;SDS011;8286;51.274;9.542;2023-07-20T09:11:46;2.90;;;2.35;;
16352;SDS011;8286;51.274;9.542;2023-07-20T09:14:13;3.03;;;2.53;;
16352;SDS011;8286;51.274;9.542;2023-07-20T09:16:51;2.70;;;2.28;;
16352;SDS011;8286;51.274;9.542;2023-07-20T09:19:19;2.45;;;2.25;;
16352;SDS011;8286;51.274;9.542;2023-07-20T09:21:46;3.17;;;1.92;;
16352;SDS011;8286;51.274;9.542;2023-07-20T09:24:13;2.25;;;2.10;;
16352;SDS011;8286;51.274;9.542;2023-07-20T09:26:40;2.55;;;2.05;;
16352;SDS011;8286;51.274;9.542;2023-07-20T09:29:08;2.00;;;1.90;;
16352;SDS011;8286;51.274;9.542;2023-07-20T09:31:35;2.25;;;2.10;;
16352;SDS011;8286;51.274;9.542;2023-07-20T09:34:03;2.15;;;2.00;;
16352;SDS011;8286;51.274;9.542;2023-07-20T09:36:31;2.70;;;2.50;;
16352;SDS011;8286;51.274;9.542;2023-07-20T09:38:59;2.03;;;1.92;;
16352;SDS011;8286;51.274;9.542;2023-07-20T09:41:26;3.17;;;2.95;;
16352;SDS011;8286;51.274;9.542;2023-07-20T09:43:52;2.63;;;2.42;;
16352;SDS011;8286;51.274;9.542;2023-07-20T09:46:20;2.60;;;2.40;;
16352;SDS011;8286;51.274;9.542;2023-07-20T09:48:51;2.80;;;2.28;;
16352;SDS011;8286;51.274;9.542;2023-07-20T09:51:19;2.92;;;2.30;;
16352;SDS011;8286;51.274;9.542;2023-07-20T09:53:48;2.00;;;1.83;;
16352;SDS011;8286;51.274;9.542;2023-07-20T09:56:15;2.28;;;2.00;;
16352;SDS011;8286;51.274;9.542;2023-07-20T09:58:43;2.90;;;1.90;;
16352;SDS011;8286;51.274;9.542;2023-07-20T10:01:10;1.77;;;1.67;;
16352;SDS011;8286;51.274;9.542;2023-07-20T10:03:39;2.78;;;1.80;;
16352;SDS011;8286;51.274;9.542;2023-07-20T10:06:08;1.85;;;1.70;;
16352;SDS011;8286;51.274;9.542;2023-07-20T10:08:38;1.90;;;1.80;;
16352;SDS011;8286;51.274;9.542;2023-07-20T10:11:05;1.98;;;1.88;;
16352;SDS011;8286;51.274;9.542;2023-07-20T10:13:34;1.70;;;1.60;;
16352;SDS011;8286;51.274;9.542;2023-07-20T10:16:07;3.97;;;1.48;;
16352;SDS011;8286;51.274;9.542;2023-07-20T10:18:38;1.23;;;1.23;;
16352;SDS011;8286;51.274;9.542;2023-07-20T10:21:09;1.38;;;1.30;;
16352;SDS011;8286;51.274;9.542;2023-07-20T10:23:36;1.33;;;1.15;;
16352;SDS011;8286;51.274;9.542;2023-07-20T10:26:04;1.30;;;1.20;;
16352;SDS011;8286;51.274;9.542;2023-07-20T10:28:31;1.27;;;1.20;;
16352;SDS011;8286;51.274;9.542;2023-07-20T10:30:57;1.00;;;1.00;;
16352;SDS011;8286;51.274;9.542;2023-07-20T10:33:24;1.15;;;1.10;;
16352;SDS011;8286;51.274;9.542;2023-07-20T10:35:51;0.82;;;0.82;;
16352;SDS011;8286;51.274;9.542;2023-07-20T10:38:18;1.23;;;1.10;;
16352;SDS011;8286;51.274;9.542;2023-07-20T10:40:53;1.17;;;1.08;;
16352;SDS011;8286;51.274;9.542;2023-07-20T10:43:21;5.28;;;0.90;;
16352;SDS011;8286;51.274;9.542;2023-07-20T10:45:48;0.70;;;0.70;;
16352;SDS011;8286;51.274;9.542;2023-07-20T10:48:16;1.73;;;0.90;;
16352;SDS011;8286;51.274;9.542;2023-07-20T10:50:44;0.80;;;0.80;;
16352;SDS011;8286;51.274;9.542;2023-07-20T10:53:12;2.35;;;1.00;;
16352;SDS011;8286;51.274;9.542;2023-07-20T10:55:40;1.00;;;0.85;;
16352;SDS011;8286;51.274;9.542;2023-07-20T10:58:07;0.85;;;0.85;;
16352;SDS011;8286;51.274;9.542;2023-07-20T11:00:36;1.38;;;0.90;;
16352;SDS011;8286;51.274;9.542;2023-07-20T11:03:03;0.80;;;0.80;;
16352;SDS011;8286;51.274;9.542;2023-07-20T11:05:34;1.90;;;0.90;;
16352;SDS011;8286;51.274;9.542;2023-07-20T11:08:03;1.00;;;0.70;;
16352;SDS011;8286;51.274;9.542;2023-07-20T11:10:30;1.13;;;1.13;;
16352;SDS011;8286;51.274;9.542;2023-07-20T11:16:04;1.00;;;0.90;;
16352;SDS011;8286;51.274;9.542;2023-07-20T11:18:33;0.70;;;0.70;;
16352;SDS011;8286;51.274;9.542;2023-07-20T11:21:00;1.88;;;0.80;;
16352;SDS011;8286;51.274;9.542;2023-07-20T11:23:27;0.50;;;0.50;;
16352;SDS011;8286;51.274;9.542;2023-07-20T11:25:54;0.77;;;0.77;;
16352;SDS011;8286;51.274;9.542;2023-07-20T11:28:21;0.65;;;0.65;;
16352;SDS011;8286;51.274;9.542;2023-07-20T11:30:50;0.63;;;0.50;;
16352;SDS011;8286;51.274;9.542;2023-07-20T11:33:20;0.70;;;0.70;;
16352;SDS011;8286;51.274;9.542;2023-07-20T11:35:46;0.90;;;0.65;;
16352;SDS011;8286;51.274;9.542;2023-07-20T11:38:15;0.68;;;0.50;;
16352;SDS011;8286;51.274;9.542;2023-07-20T11:40:42;0.50;;;0.50;;
16352;SDS011;8286;51.274;9.542;2023-07-20T11:43:09;1.05;;;0.77;;
16352;SDS011;8286;51.274;9.542;2023-07-20T11:45:37;0.70;;;0.70;;
16352;SDS011;8286;51.274;9.542;2023-07-20T11:48:04;0.60;;;0.60;;
16352;SDS011;8286;51.274;9.542;2023-07-20T11:50:32;0.82;;;0.82;;
16352;SDS011;8286;51.274;9.542;2023-07-20T11:53:04;0.57;;;0.57;;
16352;SDS011;8286;51.274;9.542;2023-07-20T11:55:31;1.42;;;0.50;;
16352;SDS011;8286;51.274;9.542;2023-07-20T11:58:01;3.25;;;1.02;;
16352;SDS011;8286;51.274;9.542;2023-07-20T12:00:28;0.63;;;0.63;;
16352;SDS011;8286;51.274;9.542;2023-07-20T12:02:55;3.40;;;1.15;;
16352;SDS011;8286;51.274;9.542;2023-07-20T12:05:22;0.50;;;0.50;;
16352;SDS011;8286;51.274;9.542;2023-07-20T12:07:50;0.60;;;0.57;;
16352;SDS011;8286;51.274;9.542;2023-07-20T12:10:22;0.70;;;0.70;;
16352;SDS011;8286;51.274;9.542;2023-07-20T12:12:49;0.68;;;0.63;;
16352;SDS011;8286;51.274;9.542;2023-07-20T12:15:17;0.60;;;0.55;;
16352;SDS011;8286;51.274;9.542;2023-07-20T12:17:46;0.80;;;0.80;;
16352;SDS011;8286;51.274;9.542;2023-07-20T12:20:24;1.05;;;1.00;;
16352;SDS011;8286;51.274;9.542;2023-07-20T12:22:55;0.55;;;0.55;;
16352;SDS011;8286;51.274;9.542;2023-07-20T12:25:22;0.73;;;0.50;;
16352;SDS011;8286;51.274;9.542;2023-07-20T12:27:49;0.60;;;0.60;;
16352;SDS011;8286;51.274;9.542;2023-07-20T12:30:15;1.02;;;0.75;;
16352;SDS011;8286;51.274;9.542;2023-07-20T12:32:42;0.60;;;0.60;;
16352;SDS011;8286;51.274;9.542;2023-07-20T12:35:08;0.70;;;0.70;;
16352;SDS011;8286;51.274;9.542;2023-07-20T12:37:36;0.60;;;0.60;;
16352;SDS011;8286;51.274;9.542;2023-07-20T12:40:05;1.95;;;0.80;;
16352;SDS011;8286;51.274;9.542;2023-07-20T12:42:35;0.63;;;0.63;;
16352;SDS011;8286;51.274;9.542;2023-07-20T12:45:02;0.70;;;0.70;;
16352;SDS011;8286;51.274;9.542;2023-07-20T12:47:29;0.80;;;0.80;;
16352;SDS011;8286;51.274;9.542;2023-07-20T12:49:56;1.85;;;0.70;;
16352;SDS011;8286;51.274;9.542;2023-07-20T12:52:22;0.60;;;0.60;;
16352;SDS011;8286;51.274;9.542;2023-07-20T12:54:49;0.68;;;0.60;;
16352;SDS011;8286;51.274;9.542;2023-07-20T12:57:17;0.80;;;0.80;;
16352;SDS011;8286;51.274;9.542;2023-07-20T12:59:44;0.75;;;0.75;;
16352;SDS011;8286;51.274;9.542;2023-07-20T13:02:11;0.80;;;0.80;;
16352;SDS011;8286;51.274;9.542;2023-07-20T13:04:37;0.90;;;0.90;;
16352;SDS011;8286;51.274;9.542;2023-07-20T13:07:04;0.60;;;0.60;;
16352;SDS011;8286;51.274;9.542;2023-07-20T13:09:30;0.55;;;0.55;;
16352;SDS011;8286;51.274;9.542;2023-07-20T13:11:57;0.55;;;0.55;;
16352;SDS011;8286;51.274;9.542;2023-07-20T13:14:25;0.68;;;0.68;;
16352;SDS011;8286;51.274;9.542;2023-07-20T13:16:51;0.70;;;0.70;;
16352;SDS011;8286;51.274;9.542;2023-07-20T13:19:18;0.52;;;0.52;;
16352;SDS011;8286;51.274;9.542;2023-07-20T13:21:44;0.88;;;0.60;;
16352;SDS011;8286;51.274;9.542;2023-07-20T13:24:11;0.60;;;0.60;;
16352;SDS011;8286;51.274;9.542;2023-07-20T13:26:38;0.70;;;0.50;;
16352;SDS011;8286;51.274;9.542;2023-07-20T13:29:04;0.60;;;0.60;;
16352;SDS011;8286;51.274;9.542;2023-07-20T13:31:32;0.68;;;0.68;;
16352;SDS011;8286;51.274;9.542;2023-07-20T13:33:58;3.25;;;0.70;;
16352;SDS011;8286;51.274;9.542;2023-07-20T13:36:25;0.63;;;0.63;;
16352;SDS011;8286;51.274;9.542;2023-07-20T13:38:51;0.57;;;0.57;;
16352;SDS011;8286;51.274;9.542;2023-07-20T13:41:18;0.45;;;0.40;;
16352;SDS011;8286;51.274;9.542;2023-07-20T13:43:45;0.60;;;0.60;;
16352;SDS011;8286;51.274;9.542;2023-07-20T13:46:11;0.43;;;0.43;;
16352;SDS011;8286;51.274;9.542;2023-07-20T13:48:39;0.73;;;0.70;;
16352;SDS011;8286;51.274;9.542;2023-07-20T13:51:06;0.50;;;0.50;;
16352;SDS011;8286;51.274;9.542;2023-07-20T13:53:32;0.77;;;0.70;;
16352;SDS011;8286;51.274;9.542;2023-07-20T13:55:59;0.70;;;0.70;;
16352;SDS011;8286;51.274;9.542;2023-07-20T13:58:25;0.80;;;0.80;;
16352;SDS011;8286;51.274;9.542;2023-07-20T14:00:52;0.60;;;0.60;;
16352;SDS011;8286;51.274;9.542;2023-07-20T14:03:20;0.70;;;0.60;;
16352;SDS011;8286;51.274;9.542;2023-07-20T14:05:48;0.68;;;0.68;;
16352;SDS011;8286;51.274;9.542;2023-07-20T14:08:14;0.50;;;0.50;;
16352;SDS011;8286;51.274;9.542;2023-07-20T14:10:41;0.60;;;0.60;;
16352;SDS011;8286;51.274;9.542;2023-07-20T14:13:07;0.70;;;0.70;;
16352;SDS011;8286;51.274;9.542;2023-07-20T14:15:34;0.60;;;0.60;;
16352;SDS011;8286;51.274;9.542;2023-07-20T14:18:01;0.50;;;0.50;;
16352;SDS011;8286;51.274;9.542;2023-07-20T14:20:28;0.70;;;0.70;;
16352;SDS011;8286;51.274;9.542;2023-07-20T14:22:55;2.17;;;0.63;;
16352;SDS011;8286;51.274;9.542;2023-07-20T14:25:22;1.13;;;0.80;;
16352;SDS011;8286;51.274;9.542;2023-07-20T14:27:48;1.95;;;0.50;;
16352;SDS011;8286;51.274;9.542;2023-07-20T14:30:15;3.00;;;0.73;;
16352;SDS011;8286;51.274;9.542;2023-07-20T14:32:43;0.52;;;0.52;;
16352;SDS011;8286;51.274;9.542;2023-07-20T14:35:09;1.00;;;0.75;;
16352;SDS011;8286;51.274;9.542;2023-07-20T14:37:36;0.70;;;0.70;;
16352;SDS011;8286;51.274;9.542;2023-07-20T14:40:04;0.60;;;0.60;;
16352;SDS011;8286;51.274;9.542;2023-07-20T14:42:32;0.75;;;0.70;;
16352;SDS011;8286;51.274;9.542;2023-07-20T14:44:58;0.52;;;0.52;;
16352;SDS011;8286;51.274;9.542;2023-07-20T14:47:25;0.70;;;0.70;;
16352;SDS011;8286;51.274;9.542;2023-07-20T14:49:51;0.60;;;0.60;;
16352;SDS011;8286;51.274;9.542;2023-07-20T14:52:18;0.60;;;0.60;;
16352;SDS011;8286;51.274;9.542;2023-07-20T14:54:44;2.58;;;0.82;;
16352;SDS011;8286;51.274;9.542;2023-07-20T14:57:12;1.15;;;0.77;;
16352;SDS011;8286;51.274;9.542;2023-07-20T14:59:39;0.65;;;0.65;;
16352;SDS011;8286;51.274;9.542;2023-07-20T15:02:06;0.75;;;0.75;;
16352;SDS011;8286;51.274;9.542;2023-07-20T15:04:33;0.50;;;0.50;;